Time;durP1;ratioP1;P1;durP2;ratioP2;P2;SDS_P1;SDS_P2;PMS_P1;PMS_P2;Temp;Humidity;BMP_temperature;BMP_pressure;BME280_temperature;BME280_humidity;BME280_pressure;Samples;Min_cycle;Max_cycle;Signal;HPM_P1;HPM_P2
2022/01/30 00:00:31;;;;;;;;;;;;;;;5.59;63.01;102988.41;7363855;19;19923;-63
2022/01/30 00:02:57;;;;;;;;;;;;;;;5.56;63.51;102974.44;7356256;19;19930;-63
2022/01/30 00:05:22;;;;;;;;;;;;;;;5.55;63.27;102983.06;7362575;19;19964;-62
2022/01/30 00:08:03;;;;;;;;;;;;;;;5.52;63.41;102968.28;3651467;19;10001856;-62
2022/01/30 00:10:30;;;;;;;;;;;;;;;5.50;63.83;102969.06;5527136;19;10001146;-63
2022/01/30 00:12:59;;;;;;;;;;;;;;;5.46;63.32;102974.13;7365359;19;19931;-63
2022/01/30 00:15:50;;;;;;;;;;;;;;;5.44;63.80;102970.59;7364822;19;19944;-63
2022/01/30 00:20:40;;;;;;;;;;;;;;;5.40;63.29;102979.09;7368046;19;20287;-63
2022/01/30 00:23:22;;;;;;;;;;;;;;;5.38;63.52;102979.88;7372868;19;19929;-63
2022/01/30 00:25:52;;;;;;;;;;;;;;;5.33;63.55;102977.13;7372197;19;19941;-62
2022/01/30 00:28:20;;;;;;;;;;;;;;;5.33;63.68;102984.91;7370143;19;19923;-63
2022/01/30 00:30:45;;;;;;;;;;;;;;;5.31;63.88;102983.06;7363700;19;19950;-62
2022/01/30 00:33:11;;;;;;;;;;;;;;;5.30;63.77;102979.59;7354003;19;19922;-63
2022/01/30 00:35:36;;;;;;;;;;;;;;;5.29;63.37;102974.38;7360962;19;19922;-63
2022/01/30 00:38:03;;;;;;;;;;;;;;;5.27;63.52;102982.09;7358978;19;19919;-63
2022/01/30 00:40:28;;;;;;;;;;;;;;;5.25;63.55;102983.75;7352288;19;19923;-62
2022/01/30 00:42:53;;;;;;;;;;;;;;;5.22;63.56;102968.09;7356500;19;19927;-63
2022/01/30 00:45:18;;;;;;;;;;;;;;;5.20;63.69;102965.44;7360782;19;19919;-62
2022/01/30 00:47:44;;;;;;;;;;;;;;;5.19;64.02;102974.03;7345530;19;19940;-62
2022/01/30 00:50:09;;;;;;;;;;;;;;;5.19;63.69;102967.97;7360650;19;19927;-62
2022/01/30 00:52:35;;;;;;;;;;;;;;;5.17;63.38;102967.03;7362434;19;20379;-63
2022/01/30 00:55:00;;;;;;;;;;;;;;;5.13;63.52;102968.66;7360819;19;19915;-63
2022/01/30 00:57:25;;;;;;;;;;;;;;;5.11;63.76;102965.09;7360923;19;20628;-63
2022/01/30 00:59:51;;;;;;;;;;;;;;;5.10;63.81;102972.81;7360834;19;19918;-63
2022/01/30 01:02:17;;;;;;;;;;;;;;;5.08;64.06;102974.50;7361528;19;19923;-62
2022/01/30 01:04:42;;;;;;;;;;;;;;;5.05;63.81;102970.06;7360723;19;19936;-63
2022/01/30 01:07:14;;;;;;;;;;;;;;;5.04;63.90;102972.63;7364082;19;19999;-62
2022/01/30 01:09:41;;;;;;;;;;;;;;;5.03;63.58;102978.63;7361945;19;19918;-63
2022/01/30 01:12:35;;;;;;;;;;;;;;;5.01;63.95;102983.72;7363384;19;19926;-63
2022/01/30 01:25:49;;;;;;;;;;;;;;;4.97;63.98;102973.19;7362105;19;20276;-63
2022/01/30 01:28:14;;;;;;;;;;;;;;;4.94;64.03;102961.91;7360641;19;19922;-62
2022/01/30 01:30:39;;;;;;;;;;;;;;;4.94;64.39;102961.91;7358914;19;20317;-62
2022/01/30 01:33:06;;;;;;;;;;;;;;;4.92;64.17;102952.34;7359699;19;20652;-63
2022/01/30 01:35:31;;;;;;;;;;;;;;;4.91;64.72;102956.59;7361689;19;20229;-63
2022/01/30 01:37:57;;;;;;;;;;;;;;;4.91;64.40;102960.91;7362745;19;19926;-62
2022/01/30 01:40:22;;;;;;;;;;;;;;;4.90;64.28;102957.44;7360606;19;19923;-63
2022/01/30 01:42:47;;;;;;;;;;;;;;;4.90;64.64;102954.84;7361835;19;20002;-62
2022/01/30 01:45:20;;;;;;;;;;;;;;;4.91;64.62;102964.38;7359818;19;19946;-63
2022/01/30 01:47:45;;;;;;;;;;;;;;;4.91;64.60;102966.97;7360074;19;19918;-63
2022/01/30 01:50:17;;;;;;;;;;;;;;;4.92;64.29;102961.00;7361925;19;19951;-63
2022/01/30 01:52:42;;;;;;;;;;;;;;;4.92;64.96;102953.22;7360389;19;19915;-63
2022/01/30 01:55:08;;;;;;;;;;;;;;;4.92;64.26;102942.88;7368120;19;19922;-63
2022/01/30 01:57:51;;;;;;;;;;;;;;;4.83;64.69;102926.09;3184105;19;10022055;-63
2022/01/30 02:00:16;;;;;;;;;;;;;;;4.89;64.49;102945.31;6153067;19;10002103;-63
2022/01/30 02:02:41;;;;;;;;;;;;;;;4.87;64.38;102934.06;7374835;19;19965;-63
2022/01/30 02:05:07;;;;;;;;;;;;;;;4.85;64.19;102943.44;7365471;19;19932;-63
2022/01/30 02:10:12;;;;;;;;;;;;;;;4.79;64.45;102935.47;7362409;19;19919;-63
2022/01/30 02:12:47;;;;;;;;;;;;;;;4.76;64.83;102934.47;7367803;19;19923;-62
2022/01/30 02:26:01;;;;;;;;;;;;;;;4.60;64.74;102953.72;7370768;19;20332;-63
2022/01/30 02:28:28;;;;;;;;;;;;;;;4.56;64.42;102946.66;7372758;19;19923;-63
2022/01/30 02:31:05;;;;;;;;;;;;;;;4.54;64.97;102932.78;7372626;19;19922;-63
2022/01/30 02:33:30;;;;;;;;;;;;;;;4.52;65.10;102929.28;7373155;19;19931;-63
2022/01/30 02:35:55;;;;;;;;;;;;;;;4.50;65.17;102930.91;7369070;19;20232;-63
2022/01/30 02:38:21;;;;;;;;;;;;;;;4.49;64.78;102934.31;7369827;19;19923;-63
2022/01/30 02:40:48;;;;;;;;;;;;;;;4.47;65.12;102938.56;7370954;19;20583;-63
2022/01/30 02:43:17;;;;;;;;;;;;;;;4.45;65.16;102937.59;7369124;19;19918;-63
2022/01/30 02:45:48;;;;;;;;;;;;;;;4.45;65.08;102940.19;7370866;19;19927;-63
2022/01/30 02:48:18;;;;;;;;;;;;;;;4.42;65.03;102943.56;7370353;19;19930;-62
2022/01/30 02:51:08;;;;;;;;;;;;;;;4.41;64.86;102942.69;7350460;19;19986;-62
2022/01/30 02:53:39;;;;;;;;;;;;;;;4.39;64.99;102939.13;7265317;19;2004365;-63
2022/01/30 02:56:04;;;;;;;;;;;;;;;4.38;65.06;102939.09;7373400;19;19927;-63
2022/01/30 02:58:29;;;;;;;;;;;;;;;4.37;65.20;102930.44;7363847;19;19990;-63
2022/01/30 03:00:54;;;;;;;;;;;;;;;4.36;65.47;102932.97;7369920;19;20795;-62
2022/01/30 03:03:20;;;;;;;;;;;;;;;4.35;65.14;102934.66;7371867;19;20329;-62
2022/01/30 03:05:45;;;;;;;;;;;;;;;4.34;65.01;102938.06;7367345;19;19943;-63
2022/01/30 03:08:10;;;;;;;;;;;;;;;4.34;65.38;102935.47;7370348;19;19918;-63
2022/01/30 03:10:35;;;;;;;;;;;;;;;4.32;65.38;102931.97;7371648;19;19982;-63
2022/01/30 03:13:01;;;;;;;;;;;;;;;4.31;65.25;102940.56;7366030;19;20609;-63
2022/01/30 03:15:26;;;;;;;;;;;;;;;4.31;65.75;102935.38;7370618;19;19954;-62
2022/01/30 03:17:51;;;;;;;;;;;;;;;4.31;65.43;102930.22;7370738;19;20274;-63
2022/01/30 03:20:17;;;;;;;;;;;;;;;4.31;65.64;102924.13;7365579;19;20231;-64
2022/01/30 03:22:42;;;;;;;;;;;;;;;4.31;65.44;102919.88;7371056;19;19982;-62
2022/01/30 03:25:07;;;;;;;;;;;;;;;4.32;65.41;102913.00;7366601;19;19919;-63
2022/01/30 03:27:32;;;;;;;;;;;;;;;4.31;65.59;102914.69;7367068;19;19926;-64
2022/01/30 03:30:06;;;;;;;;;;;;;;;4.32;65.58;102919.03;7356156;19;19941;-62
2022/01/30 03:32:32;;;;;;;;;;;;;;;4.31;65.40;102919.88;7364159;19;19998;-63
2022/01/30 03:34:57;;;;;;;;;;;;;;;4.32;65.43;102911.28;7370864;19;19941;-63
2022/01/30 03:37:22;;;;;;;;;;;;;;;4.31;65.55;102899.19;7367480;19;20339;-63
2022/01/30 03:39:48;;;;;;;;;;;;;;;4.32;65.58;102885.41;7368492;19;20356;-63
2022/01/30 03:42:13;;;;;;;;;;;;;;;4.32;65.39;102880.25;7370630;19;19948;-63
2022/01/30 03:44:38;;;;;;;;;;;;;;;4.33;65.93;102879.41;7334896;19;19958;-63
2022/01/30 03:47:04;;;;;;;;;;;;;;;4.32;65.95;102875.06;1105380;19;10002184;-63
2022/01/30 03:49:29;;;;;;;;;;;;;;;4.32;65.59;102879.38;7368897;19;19923;-63
2022/01/30 03:51:54;;;;;;;;;;;;;;;4.32;65.85;102880.25;7365839;19;19954;-63
2022/01/30 03:54:19;;;;;;;;;;;;;;;4.30;65.65;102871.53;7364930;19;19911;-63
2022/01/30 03:56:45;;;;;;;;;;;;;;;4.32;65.88;102863.84;7369081;19;19918;-63
2022/01/30 03:59:10;;;;;;;;;;;;;;;4.29;65.67;102872.34;7360485;19;19950;-63
2022/01/30 04:01:37;;;;;;;;;;;;;;;4.30;65.66;102870.66;7366450;19;19915;-63
2022/01/30 04:04:03;;;;;;;;;;;;;;;4.29;66.25;102869.75;7370562;19;19928;-63
2022/01/30 04:06:28;;;;;;;;;;;;;;;4.28;65.88;102873.19;7358980;19;20621;-63
2022/01/30 04:08:53;;;;;;;;;;;;;;;4.28;65.67;102873.19;7366014;19;19911;-63
2022/01/30 04:11:19;;;;;;;;;;;;;;;4.29;66.28;102866.31;7368569;19;19915;-62
2022/01/30 04:13:44;;;;;;;;;;;;;;;4.29;66.08;102866.31;7362615;19;20609;-62
2022/01/30 04:16:09;;;;;;;;;;;;;;;4.31;66.46;102867.22;7367301;19;19926;-63
2022/01/30 04:18:35;;;;;;;;;;;;;;;4.31;66.55;102872.41;7357166;19;19945;-63
2022/01/30 04:21:00;;;;;;;;;;;;;;;4.33;66.30;102876.81;7368395;19;19919;-63
2022/01/30 04:23:25;;;;;;;;;;;;;;;4.34;66.30;102868.22;7367000;19;19911;-63
2022/01/30 04:25:51;;;;;;;;;;;;;;;4.36;66.02;102863.16;7368583;19;20389;-63
2022/01/30 04:28:16;;;;;;;;;;;;;;;4.37;66.16;102864.91;7365888;19;19977;-63
2022/01/30 04:30:41;;;;;;;;;;;;;;;4.36;66.46;102858.84;7367306;19;19911;-63
2022/01/30 04:33:07;;;;;;;;;;;;;;;4.35;65.94;102864.81;7364531;19;20475;-63
2022/01/30 04:35:32;;;;;;;;;;;;;;;4.35;65.93;102863.94;7362589;19;19919;-63
2022/01/30 04:56:55;;;;;;;;;;;;;;;4.18;66.15;102850.38;7364377;19;19915;-63
2022/01/30 05:07:32;;;;;;;;;;;;;;;4.13;66.78;102836.41;7367684;19;19919;-63
2022/01/30 05:09:57;;;;;;;;;;;;;;;4.13;66.84;102841.56;7366923;19;19922;-63
2022/01/30 05:12:25;;;;;;;;;;;;;;;4.14;66.58;102833.88;7365714;19;19923;-63
2022/01/30 05:14:50;;;;;;;;;;;;;;;4.17;66.45;102833.13;7365879;19;19919;-63
2022/01/30 05:17:16;;;;;;;;;;;;;;;4.17;66.53;102817.59;7371901;19;20280;-63
2022/01/30 05:19:41;;;;;;;;;;;;;;;4.17;66.80;102809.84;7363532;19;19919;-63
2022/01/30 05:22:06;;;;;;;;;;;;;;;4.19;66.39;102809.88;7368539;19;19915;-63
2022/01/30 05:24:32;;;;;;;;;;;;;;;4.19;66.36;102810.75;7364622;19;19915;-62
2022/01/30 05:26:57;;;;;;;;;;;;;;;4.19;66.87;102805.59;7363959;19;19946;-62
2022/01/30 05:29:23;;;;;;;;;;;;;;;4.19;66.53;102805.59;7366258;19;19919;-64
2022/01/30 05:31:48;;;;;;;;;;;;;;;4.19;66.91;102797.84;7367950;19;20308;-64
2022/01/30 05:34:13;;;;;;;;;;;;;;;4.18;66.76;102803.84;7331474;19;19930;-63
2022/01/30 05:36:39;;;;;;;;;;;;;;;4.17;66.72;102786.56;1105565;19;10001889;-62
2022/01/30 05:39:05;;;;;;;;;;;;;;;4.15;66.76;102794.25;7365617;19;20018;-63
2022/01/30 05:41:30;;;;;;;;;;;;;;;4.14;66.87;102801.97;7369187;19;19925;-63
2022/01/30 05:43:58;;;;;;;;;;;;;;;4.12;66.84;102796.75;7366643;19;19938;-62
2022/01/30 05:46:32;;;;;;;;;;;;;;;4.12;66.74;102793.28;7369084;19;20409;-63
2022/01/30 05:48:57;;;;;;;;;;;;;;;4.11;67.14;102788.94;7355763;19;20445;-64
2022/01/30 05:51:23;;;;;;;;;;;;;;;4.10;67.16;102789.72;7367110;19;19923;-63
2022/01/30 05:53:48;;;;;;;;;;;;;;;4.12;67.07;102790.69;7363151;19;19923;-62
2022/01/30 05:56:13;;;;;;;;;;;;;;;4.13;67.45;102784.69;7363883;19;19919;-63
2022/01/30 05:58:39;;;;;;;;;;;;;;;4.14;67.38;102787.31;7363229;19;19948;-64
2022/01/30 06:01:05;;;;;;;;;;;;;;;4.17;67.57;102791.75;7367211;19;19923;-63
2022/01/30 06:03:30;;;;;;;;;;;;;;;4.20;67.61;102786.66;7366577;19;19951;-63
2022/01/30 06:05:55;;;;;;;;;;;;;;;4.22;67.18;102786.75;7366371;19;19938;-62
2022/01/30 06:11:04;;;;;;;;;;;;;;;4.29;67.27;102784.41;7366140;19;20320;-64
2022/01/30 06:13:29;;;;;;;;;;;;;;;4.32;67.30;102781.97;7365225;19;19922;-63
2022/01/30 06:15:55;;;;;;;;;;;;;;;4.35;67.48;102781.16;7363595;19;19964;-63
2022/01/30 06:18:20;;;;;;;;;;;;;;;4.39;67.29;102773.59;7365091;19;19918;-63
2022/01/30 06:20:45;;;;;;;;;;;;;;;4.43;67.38;102775.47;7362229;19;19927;-62
2022/01/30 06:23:10;;;;;;;;;;;;;;;4.48;67.54;102777.34;7366103;19;19919;-63
2022/01/30 06:25:36;;;;;;;;;;;;;;;4.51;67.57;102780.00;7365750;19;19931;-63
2022/01/30 06:28:01;;;;;;;;;;;;;;;4.52;67.68;102774.91;7362250;19;19942;-63
2022/01/30 06:30:26;;;;;;;;;;;;;;;4.54;67.23;102778.41;7363601;19;19927;-63
2022/01/30 06:32:52;;;;;;;;;;;;;;;4.57;67.73;102775.09;7360782;19;20336;-62
2022/01/30 06:35:17;;;;;;;;;;;;;;;4.57;67.58;102772.50;7367307;19;19974;-62
2022/01/30 06:37:42;;;;;;;;;;;;;;;4.60;67.49;102770.00;7362715;19;19922;-63
2022/01/30 06:40:08;;;;;;;;;;;;;;;4.62;67.32;102769.22;7360343;19;19915;-63
2022/01/30 06:42:33;;;;;;;;;;;;;;;4.63;67.64;102771.00;7370883;19;19914;-63
2022/01/30 06:44:59;;;;;;;;;;;;;;;4.64;67.66;102764.09;7369251;19;19923;-63
2022/01/30 06:47:24;;;;;;;;;;;;;;;4.66;67.40;102770.19;7370023;19;19915;-63
2022/01/30 06:49:49;;;;;;;;;;;;;;;4.68;67.24;102768.56;7371234;19;19927;-63
2022/01/30 06:52:15;;;;;;;;;;;;;;;4.69;67.37;102759.97;7366652;19;19926;-63
2022/01/30 06:54:40;;;;;;;;;;;;;;;4.70;67.26;102753.97;7372602;19;20548;-63
2022/01/30 06:57:06;;;;;;;;;;;;;;;4.72;67.53;102746.28;7369970;19;20360;-63
2022/01/30 06:59:31;;;;;;;;;;;;;;;4.74;67.37;102745.47;7366673;19;19919;-63
2022/01/30 07:01:56;;;;;;;;;;;;;;;4.75;67.25;102749.81;7370411;19;20391;-63
2022/01/30 07:04:21;;;;;;;;;;;;;;;4.77;67.19;102750.78;7367750;19;19923;-63
2022/01/30 07:06:47;;;;;;;;;;;;;;;4.78;67.62;102747.34;7372724;19;19915;-63
2022/01/30 07:09:12;;;;;;;;;;;;;;;4.81;67.27;102752.59;7370550;19;19922;-63
2022/01/30 07:11:37;;;;;;;;;;;;;;;4.82;67.27;102749.22;7369597;19;19918;-63
2022/01/30 07:14:03;;;;;;;;;;;;;;;4.84;67.25;102741.50;7371765;19;19929;-62
2022/01/30 07:16:28;;;;;;;;;;;;;;;4.86;67.38;102740.69;7364973;19;19935;-63
2022/01/30 07:18:53;;;;;;;;;;;;;;;4.88;67.26;102728.72;7371388;19;20352;-63
2022/01/30 07:21:18;;;;;;;;;;;;;;;4.90;67.38;102727.03;7369774;19;19936;-63
2022/01/30 07:23:44;;;;;;;;;;;;;;;4.92;67.44;102717.63;7371475;19;19942;-63
2022/01/30 07:26:19;;;;;;;;;;;;;;;4.95;67.53;102704.75;5671017;19;10022496;-63
2022/01/30 07:28:44;;;;;;;;;;;;;;;4.97;67.60;102711.69;3246353;19;10001952;-63
2022/01/30 07:31:09;;;;;;;;;;;;;;;4.98;67.34;102708.31;7372478;19;19986;-62
2022/01/30 07:33:35;;;;;;;;;;;;;;;5.01;67.11;102703.19;7369912;19;19994;-63
2022/01/30 07:36:01;;;;;;;;;;;;;;;5.02;67.35;102694.59;7371255;19;21013;-63
2022/01/30 07:38:27;;;;;;;;;;;;;;;5.02;67.40;102700.69;7366867;19;20271;-63
2022/01/30 07:40:53;;;;;;;;;;;;;;;5.02;67.45;102703.28;7368276;19;19938;-63
2022/01/30 07:43:18;;;;;;;;;;;;;;;5.03;67.55;102696.38;7366044;19;19923;-63
2022/01/30 07:45:43;;;;;;;;;;;;;;;5.05;67.18;102697.28;7367349;19;19931;-63
2022/01/30 07:48:08;;;;;;;;;;;;;;;5.06;67.40;102699.06;7366281;19;19954;-62
2022/01/30 07:50:34;;;;;;;;;;;;;;;5.08;67.14;102700.00;7369630;19;19918;-63
2022/01/30 07:52:59;;;;;;;;;;;;;;;5.10;67.25;102701.78;7369865;19;19923;-63
2022/01/30 07:55:24;;;;;;;;;;;;;;;5.11;67.24;102694.91;7367695;19;19930;-64
2022/01/30 07:57:49;;;;;;;;;;;;;;;5.13;67.10;102682.91;7367763;19;20006;-63
2022/01/30 08:00:15;;;;;;;;;;;;;;;5.15;67.15;102686.41;7368168;19;20337;-63
2022/01/30 08:02:40;;;;;;;;;;;;;;;5.15;67.00;102686.41;7366931;19;20644;-63
2022/01/30 08:05:06;;;;;;;;;;;;;;;5.15;67.41;102681.22;7366998;19;19976;-63
2022/01/30 08:07:31;;;;;;;;;;;;;;;5.13;67.25;102678.59;7368383;19;20019;-63
2022/01/30 08:09:57;;;;;;;;;;;;;;;5.13;66.86;102677.72;7366054;19;19979;-63
2022/01/30 08:12:22;;;;;;;;;;;;;;;5.10;67.34;102678.47;7370398;19;19919;-63
2022/01/30 08:14:48;;;;;;;;;;;;;;;5.11;67.11;102684.53;7354546;19;19911;-63
2022/01/30 08:17:20;;;;;;;;;;;;;;;5.08;66.95;102674.09;7362460;19;20484;-63
2022/01/30 08:19:46;;;;;;;;;;;;;;;5.06;67.17;102665.38;7365642;19;19919;-63
2022/01/30 08:22:11;;;;;;;;;;;;;;;5.03;67.12;102666.19;7362869;19;19945;-63
2022/01/30 08:24:37;;;;;;;;;;;;;;;5.01;67.14;102660.06;7365048;19;19925;-63
2022/01/30 08:27:02;;;;;;;;;;;;;;;4.99;67.00;102660.84;7365409;19;19911;-63
2022/01/30 08:29:27;;;;;;;;;;;;;;;4.98;66.95;102656.53;7362343;19;19915;-62
2022/01/30 08:31:52;;;;;;;;;;;;;;;4.95;67.23;102663.34;7365903;19;19959;-63
2022/01/30 08:34:18;;;;;;;;;;;;;;;4.95;67.03;102667.63;7367568;19;19934;-63
2022/01/30 08:36:43;;;;;;;;;;;;;;;4.92;67.17;102668.44;7366285;19;19911;-62
2022/01/30 08:39:08;;;;;;;;;;;;;;;4.92;67.22;102668.44;7368209;19;19919;-62
2022/01/30 08:41:33;;;;;;;;;;;;;;;4.93;67.41;102653.78;7345851;19;20005;-63
2022/01/30 08:43:58;;;;;;;;;;;;;;;4.97;67.43;102646.97;7366064;19;19942;-62
2022/01/30 08:46:24;;;;;;;;;;;;;;;5.02;67.65;102645.41;7358380;19;19922;-63
2022/01/30 08:48:49;;;;;;;;;;;;;;;5.06;67.63;102644.69;7367094;19;20454;-63
2022/01/30 08:51:14;;;;;;;;;;;;;;;5.10;67.70;102641.34;7368281;19;20422;-63
2022/01/30 08:53:39;;;;;;;;;;;;;;;5.15;67.37;102639.78;7361613;19;19941;-63
2022/01/30 08:56:05;;;;;;;;;;;;;;;5.21;67.75;102639.97;7368377;19;19929;-63
2022/01/30 08:58:32;;;;;;;;;;;;;;;5.26;67.56;102643.56;7364033;19;19974;-63
2022/01/30 09:00:58;;;;;;;;;;;;;;;5.32;67.61;102646.38;7353983;19;19958;-63
2022/01/30 09:03:23;;;;;;;;;;;;;;;5.37;67.41;102631.84;7362697;19;20532;-62
2022/01/30 09:05:48;;;;;;;;;;;;;;;5.45;67.53;102635.53;7359958;19;19926;-63
2022/01/30 09:08:13;;;;;;;;;;;;;;;5.50;67.75;102633.06;7354381;19;19926;-63
2022/01/30 09:10:39;;;;;;;;;;;;;;;5.55;67.48;102630.63;7359441;19;21778;-62
2022/01/30 09:13:05;;;;;;;;;;;;;;;5.61;67.89;102621.28;7352918;19;19927;-63
2022/01/30 09:15:36;;;;;;;;;;;;;;;5.69;67.65;102624.13;7361367;19;19927;-63
2022/01/30 09:18:09;;;;;;;;;;;;;;;5.76;67.55;102618.25;6475827;19;9999977;-62
2022/01/30 09:20:35;;;;;;;;;;;;;;;5.82;67.53;102605.44;2230052;19;10002050;-62
2022/01/30 09:23:01;;;;;;;;;;;;;;;5.90;67.45;102603.97;7364012;19;19919;-62
2022/01/30 09:25:27;;;;;;;;;;;;;;;6.01;67.81;102600.81;7366748;19;19982;-63
2022/01/30 09:27:52;;;;;;;;;;;;;;;6.13;67.99;102595.94;7362543;19;20660;-63
2022/01/30 09:30:18;;;;;;;;;;;;;;;6.32;67.56;102595.56;7365943;19;19925;-63
2022/01/30 09:32:43;;;;;;;;;;;;;;;6.53;67.82;102591.75;7368138;19;19919;-63
2022/01/30 09:35:09;;;;;;;;;;;;;;;6.74;68.12;102582.78;7364207;19;20631;-63
2022/01/30 09:37:34;;;;;;;;;;;;;;;6.95;68.04;102581.50;7352919;19;20530;-63
2022/01/30 09:39:59;;;;;;;;;;;;;;;7.09;67.63;102563.59;7357184;19;19927;-63
2022/01/30 09:42:24;;;;;;;;;;;;;;;7.21;67.35;102554.38;7366035;19;19923;-63
2022/01/30 09:44:50;;;;;;;;;;;;;;;7.31;67.34;102560.63;7355838;19;19926;-63
2022/01/30 09:47:16;;;;;;;;;;;;;;;7.39;67.13;102560.78;7358369;19;19915;-63
2022/01/30 09:49:49;;;;;;;;;;;;;;;7.46;67.08;102557.47;7360373;19;20256;-63
2022/01/30 09:52:14;;;;;;;;;;;;;;;7.54;67.03;102548.06;7356377;19;19923;-63
2022/01/30 09:54:39;;;;;;;;;;;;;;;7.64;67.01;102543.94;7356450;19;19926;-63
2022/01/30 09:57:05;;;;;;;;;;;;;;;7.71;67.10;102535.41;7357266;19;19982;-63
2022/01/30 09:59:30;;;;;;;;;;;;;;;7.80;66.94;102535.56;7360553;19;19922;-63
2022/01/30 10:01:55;;;;;;;;;;;;;;;7.89;67.16;102535.72;7359062;19;21108;-63
2022/01/30 10:04:21;;;;;;;;;;;;;;;8.00;67.41;102536.78;7357123;19;19927;-63
2022/01/30 10:06:50;;;;;;;;;;;;;;;8.15;67.38;102527.50;7349518;19;20006;-63
2022/01/30 10:09:30;;;;;;;;;;;;;;;8.30;67.03;102527.75;7353127;19;19922;-63
2022/01/30 10:12:12;;;;;;;;;;;;;;;8.38;67.06;102520.97;7354390;19;19910;-63
2022/01/30 10:14:48;;;;;;;;;;;;;;;8.53;66.54;102521.22;7356105;19;20618;-63
2022/01/30 10:17:24;;;;;;;;;;;;;;;8.60;66.49;102513.47;7363638;19;19925;-63
2022/01/30 10:19:59;;;;;;;;;;;;;;;8.63;66.40;102495.31;7357098;19;19907;-62
2022/01/30 10:22:24;;;;;;;;;;;;;;;8.64;66.16;102491.84;7365145;19;19919;-63
2022/01/30 10:24:50;;;;;;;;;;;;;;;8.65;66.18;102484.03;7357312;19;21037;-63
2022/01/30 10:27:22;;;;;;;;;;;;;;;8.67;65.83;102482.34;7364949;19;19919;-63
2022/01/30 10:29:55;;;;;;;;;;;;;;;8.71;65.97;102472.81;7363805;19;19918;-63
2022/01/30 10:32:21;;;;;;;;;;;;;;;8.77;66.14;102468.59;7362531;19;20025;-63
2022/01/30 10:34:55;;;;;;;;;;;;;;;8.93;66.64;102458.38;7363785;19;21489;-63
2022/01/30 10:37:22;;;;;;;;;;;;;;;9.16;66.87;102453.41;7364289;19;19923;-63
2022/01/30 10:39:56;;;;;;;;;;;;;;;9.39;66.96;102448.47;7363043;19;19934;-63
2022/01/30 10:42:33;;;;;;;;;;;;;;;9.61;66.49;102443.44;7363671;19;19918;-64
2022/01/30 10:44:59;;;;;;;;;;;;;;;9.76;65.86;102437.50;7367315;19;19955;-63
2022/01/30 10:47:24;;;;;;;;;;;;;;;9.84;65.77;102433.22;7356669;19;19915;-63
2022/01/30 10:49:49;;;;;;;;;;;;;;;9.87;65.46;102429.75;7360428;19;19930;-64
2022/01/30 10:52:15;;;;;;;;;;;;;;;9.90;65.10;102427.19;7363975;19;20336;-63
2022/01/30 10:54:40;;;;;;;;;;;;;;;9.93;65.32;102427.19;7365795;19;19927;-64
2022/01/30 10:57:10;;;;;;;;;;;;;;;9.99;65.38;102426.38;7358859;19;20014;-64
2022/01/30 10:59:52;;;;;;;;;;;;;;;10.00;64.98;102413.34;7361987;19;19922;-63
2022/01/30 11:02:24;;;;;;;;;;;;;;;10.00;64.61;102408.13;7357227;19;20320;-63
2022/01/30 11:04:59;;;;;;;;;;;;;;;10.00;64.65;102402.03;7348315;19;19927;-64
2022/01/30 11:07:27;;;;;;;;;;;;;;;9.98;64.63;102388.06;7351980;19;20241;-63
2022/01/30 11:10:00;;;;;;;;;;;;;;;9.96;64.56;102385.47;7355388;19;20728;-63
2022/01/30 11:12:34;;;;;;;;;;;;;;;9.95;64.20;102375.91;7366463;19;19974;-63
2022/01/30 11:15:16;;;;;;;;;;;;;;;9.95;64.53;102373.28;7349227;19;19986;-63
2022/01/30 11:17:43;;;;;;;;;;;;;;;9.97;64.65;102363.72;7351519;19;19917;-63
2022/01/30 11:20:11;;;;;;;;;;;;;;;10.01;64.40;102357.66;7358103;19;19969;-63
2022/01/30 11:22:37;;;;;;;;;;;;;;;10.04;63.63;102347.25;7355140;19;19927;-64
2022/01/30 11:25:07;;;;;;;;;;;;;;;10.04;63.76;102341.16;7359217;19;19919;-63
2022/01/30 11:27:34;;;;;;;;;;;;;;;10.04;63.53;102336.81;7349554;19;19990;-63
2022/01/30 11:30:00;;;;;;;;;;;;;;;10.07;63.71;102336.81;7340144;19;19911;-63
2022/01/30 11:32:28;;;;;;;;;;;;;;;10.09;63.68;102319.44;7348901;19;20340;-63
2022/01/30 11:35:04;;;;;;;;;;;;;;;10.12;62.88;102301.16;3910834;19;10001097;-64
2022/01/30 11:37:32;;;;;;;;;;;;;;;10.20;63.45;102295.13;5014079;19;10001113;-64
2022/01/30 11:39:57;;;;;;;;;;;;;;;10.36;63.29;102287.38;7353697;19;20374;-64
2022/01/30 11:42:25;;;;;;;;;;;;;;;10.67;64.15;102286.59;7352154;19;19911;-64
2022/01/30 11:44:50;;;;;;;;;;;;;;;11.06;64.34;102264.88;7360470;19;19931;-64
2022/01/30 11:47:19;;;;;;;;;;;;;;;11.51;63.85;102243.06;7350415;19;20631;-64
2022/01/30 11:49:52;;;;;;;;;;;;;;;11.99;62.66;102246.44;7360633;19;19922;-64
2022/01/30 11:52:18;;;;;;;;;;;;;;;12.41;61.97;102239.25;7354838;19;20851;-64
2022/01/30 11:54:49;;;;;;;;;;;;;;;12.76;61.39;102238.16;7357301;19;19926;-64
2022/01/30 11:57:18;;;;;;;;;;;;;;;13.09;61.02;102230.03;7354645;19;19923;-64
2022/01/30 11:59:43;;;;;;;;;;;;;;;13.36;60.24;102212.31;7341119;19;19922;-64
2022/01/30 12:02:25;;;;;;;;;;;;;;;13.57;58.87;102206.84;7350613;19;19938;-63
2022/01/30 12:04:55;;;;;;;;;;;;;;;13.62;58.17;102202.41;7363451;19;19918;-64
2022/01/30 12:07:33;;;;;;;;;;;;;;;13.61;57.41;102205.91;7372176;19;19911;-64
2022/01/30 12:10:17;;;;;;;;;;;;;;;13.54;56.22;102198.16;7368489;19;19966;-64
2022/01/30 12:12:46;;;;;;;;;;;;;;;13.41;55.08;102184.28;7352242;19;19931;-64
2022/01/30 12:15:31;;;;;;;;;;;;;;;13.26;55.43;102163.44;7356662;19;19919;-64
2022/01/30 12:17:56;;;;;;;;;;;;;;;13.12;55.34;102169.66;7360271;19;20375;-64
2022/01/30 12:20:22;;;;;;;;;;;;;;;13.03;55.09;102176.75;7356118;19;19923;-64
2022/01/30 12:22:48;;;;;;;;;;;;;;;12.92;55.27;102154.09;7362513;19;19923;-64
2022/01/30 12:25:24;;;;;;;;;;;;;;;12.86;55.24;102132.31;7356371;19;19958;-64
2022/01/30 12:27:51;;;;;;;;;;;;;;;12.84;55.54;102139.34;7359123;19;19952;-64
2022/01/30 12:30:33;;;;;;;;;;;;;;;12.89;56.21;102127.94;7350104;19;20367;-64
2022/01/30 12:32:58;;;;;;;;;;;;;;;13.01;56.38;102095.47;7338538;19;19919;-64
2022/01/30 12:35:24;;;;;;;;;;;;;;;13.18;55.68;102087.44;7333453;19;19948;-64
2022/01/30 12:37:49;;;;;;;;;;;;;;;13.30;53.93;102081.22;7323650;19;19983;-65
2022/01/30 12:40:16;;;;;;;;;;;;;;;13.31;53.67;102080.31;7348026;19;19964;-64
2022/01/30 12:42:42;;;;;;;;;;;;;;;13.24;53.20;102077.78;7340419;19;20466;-64
2022/01/30 12:45:09;;;;;;;;;;;;;;;13.15;53.74;102092.72;7345912;19;19918;-64
2022/01/30 12:47:49;;;;;;;;;;;;;;;13.06;53.27;102083.19;7348292;19;19914;-64
2022/01/30 12:50:16;;;;;;;;;;;;;;;12.94;53.58;102070.22;7356479;19;20006;-64
2022/01/30 12:52:46;;;;;;;;;;;;;;;12.83;53.31;102082.56;7346422;19;20694;-64
2022/01/30 12:55:12;;;;;;;;;;;;;;;12.69;53.46;102070.44;7349712;19;19927;-64
2022/01/30 12:57:41;;;;;;;;;;;;;;;12.57;53.85;102064.44;7360006;19;19948;-64
2022/01/30 13:00:08;;;;;;;;;;;;;;;12.44;53.64;102053.22;7365301;19;19957;-63
2022/01/30 13:02:39;;;;;;;;;;;;;;;12.34;53.92;102038.47;7371345;19;19922;-64
2022/01/30 13:05:05;;;;;;;;;;;;;;;12.23;53.87;102050.78;7364137;19;19982;-63
2022/01/30 13:07:30;;;;;;;;;;;;;;;12.10;53.94;102040.38;7370570;19;19991;-64
2022/01/30 13:10:21;;;;;;;;;;;;;;;11.98;54.49;102035.25;7353476;19;19935;-64
2022/01/30 13:12:47;;;;;;;;;;;;;;;11.77;55.47;102015.31;7358990;19;19948;-64
2022/01/30 13:15:22;;;;;;;;;;;;;;;11.55;56.12;102004.06;7357342;19;19922;-64
2022/01/30 13:17:47;;;;;;;;;;;;;;;11.33;57.05;102002.47;7358153;19;19923;-64
2022/01/30 13:20:14;;;;;;;;;;;;;;;11.16;58.10;101994.72;7356239;19;19922;-63
2022/01/30 13:22:41;;;;;;;;;;;;;;;11.02;58.96;101980.81;7359521;19;20557;-64
2022/01/30 13:25:08;;;;;;;;;;;;;;;10.89;59.60;101982.59;7356163;19;20038;-64
2022/01/30 13:27:35;;;;;;;;;;;;;;;10.76;59.33;101980.91;7347646;19;19918;-64
2022/01/30 13:30:01;;;;;;;;;;;;;;;10.64;59.99;101971.34;7352380;19;19922;-64
2022/01/30 13:32:32;;;;;;;;;;;;;;;10.48;60.13;101960.06;5436083;19;10020996;-63
2022/01/30 13:34:58;;;;;;;;;;;;;;;10.47;60.37;101971.41;3243748;19;10001747;-63
2022/01/30 13:37:24;;;;;;;;;;;;;;;10.38;60.75;101967.06;7357392;19;19930;-63
2022/01/30 13:44:52;;;;;;;;;;;;;;;10.09;62.60;101980.13;7359335;19;19927;-64